sensor_id;sensor_type;location;lat;lon;timestamp;P1;durP1;ratioP1;P2;durP2;ratioP2
13279;SDS011;6708;49.814;8.652;2023-02-28T00:01:45;1.30;;;1.20;;
13279;SDS011;6708;49.814;8.652;2023-02-28T00:04:14;1.60;;;1.40;;
13279;SDS011;6708;49.814;8.652;2023-02-28T00:06:42;0.80;;;0.80;;
13279;SDS011;6708;49.814;8.652;2023-02-28T00:09:11;2.37;;;1.30;;
13279;SDS011;6708;49.814;8.652;2023-02-28T00:11:42;0.93;;;0.93;;
13279;SDS011;6708;49.814;8.652;2023-02-28T00:14:11;1.33;;;1.27;;
13279;SDS011;6708;49.814;8.652;2023-02-28T00:16:40;1.10;;;1.10;;
13279;SDS011;6708;49.814;8.652;2023-02-28T00:19:08;2.10;;;1.03;;
13279;SDS011;6708;49.814;8.652;2023-02-28T00:21:38;0.80;;;0.80;;
13279;SDS011;6708;49.814;8.652;2023-02-28T00:24:08;1.07;;;1.07;;
13279;SDS011;6708;49.814;8.652;2023-02-28T00:26:37;0.93;;;0.93;;
13279;SDS011;6708;49.814;8.652;2023-02-28T00:29:10;0.90;;;0.90;;
13279;SDS011;6708;49.814;8.652;2023-02-28T00:31:39;3.60;;;1.40;;
13279;SDS011;6708;49.814;8.652;2023-02-28T00:34:07;1.27;;;1.27;;
13279;SDS011;6708;49.814;8.652;2023-02-28T00:36:37;1.80;;;1.37;;
13279;SDS011;6708;49.814;8.652;2023-02-28T00:39:10;1.23;;;1.13;;
13279;SDS011;6708;49.814;8.652;2023-02-28T00:41:39;2.60;;;1.67;;
13279;SDS011;6708;49.814;8.652;2023-02-28T00:44:10;2.80;;;1.30;;
13279;SDS011;6708;49.814;8.652;2023-02-28T00:46:39;1.63;;;1.53;;
13279;SDS011;6708;49.814;8.652;2023-02-28T00:49:07;1.00;;;1.00;;
13279;SDS011;6708;49.814;8.652;2023-02-28T00:51:37;1.27;;;1.27;;
13279;SDS011;6708;49.814;8.652;2023-02-28T00:54:05;3.30;;;0.97;;
13279;SDS011;6708;49.814;8.652;2023-02-28T00:56:34;1.10;;;1.10;;
13279;SDS011;6708;49.814;8.652;2023-02-28T00:59:06;1.00;;;1.00;;
13279;SDS011;6708;49.814;8.652;2023-02-28T01:01:40;1.30;;;1.30;;
13279;SDS011;6708;49.814;8.652;2023-02-28T01:04:08;1.13;;;1.07;;
13279;SDS011;6708;49.814;8.652;2023-02-28T01:06:37;1.43;;;1.33;;
13279;SDS011;6708;49.814;8.652;2023-02-28T01:09:09;1.43;;;1.40;;
13279;SDS011;6708;49.814;8.652;2023-02-28T01:11:38;0.97;;;0.97;;
13279;SDS011;6708;49.814;8.652;2023-02-28T01:14:10;1.30;;;1.20;;
13279;SDS011;6708;49.814;8.652;2023-02-28T01:16:43;0.93;;;0.93;;
13279;SDS011;6708;49.814;8.652;2023-02-28T01:19:12;1.17;;;1.17;;
13279;SDS011;6708;49.814;8.652;2023-02-28T01:21:41;2.10;;;1.17;;
13279;SDS011;6708;49.814;8.652;2023-02-28T01:24:11;1.30;;;1.20;;
13279;SDS011;6708;49.814;8.652;2023-02-28T01:26:41;3.10;;;1.23;;
13279;SDS011;6708;49.814;8.652;2023-02-28T01:29:11;1.13;;;1.10;;
13279;SDS011;6708;49.814;8.652;2023-02-28T01:31:42;1.17;;;1.17;;
13279;SDS011;6708;49.814;8.652;2023-02-28T01:34:13;1.77;;;1.67;;
13279;SDS011;6708;49.814;8.652;2023-02-28T01:36:44;1.80;;;1.70;;
13279;SDS011;6708;49.814;8.652;2023-02-28T01:39:13;1.13;;;1.13;;
13279;SDS011;6708;49.814;8.652;2023-02-28T01:41:42;1.33;;;1.17;;
13279;SDS011;6708;49.814;8.652;2023-02-28T01:47:12;1.53;;;1.40;;
13279;SDS011;6708;49.814;8.652;2023-02-28T01:49:41;1.27;;;1.17;;
13279;SDS011;6708;49.814;8.652;2023-02-28T01:52:10;1.83;;;1.43;;
13279;SDS011;6708;49.814;8.652;2023-02-28T01:54:47;1.53;;;1.27;;
13279;SDS011;6708;49.814;8.652;2023-02-28T01:57:20;1.40;;;1.37;;
13279;SDS011;6708;49.814;8.652;2023-02-28T01:59:54;1.47;;;1.37;;
13279;SDS011;6708;49.814;8.652;2023-02-28T02:02:29;2.43;;;1.53;;
13279;SDS011;6708;49.814;8.652;2023-02-28T02:04:58;1.30;;;1.30;;
13279;SDS011;6708;49.814;8.652;2023-02-28T02:07:32;1.23;;;1.23;;
13279;SDS011;6708;49.814;8.652;2023-02-28T02:10:03;1.50;;;1.30;;
13279;SDS011;6708;49.814;8.652;2023-02-28T02:12:40;1.00;;;1.00;;
13279;SDS011;6708;49.814;8.652;2023-02-28T02:15:24;0.90;;;0.90;;
13279;SDS011;6708;49.814;8.652;2023-02-28T02:18:01;1.40;;;1.30;;
13279;SDS011;6708;49.814;8.652;2023-02-28T02:23:46;1.40;;;1.37;;
13279;SDS011;6708;49.814;8.652;2023-02-28T02:26:26;1.70;;;1.60;;
13279;SDS011;6708;49.814;8.652;2023-02-28T02:29:11;1.33;;;1.23;;
13279;SDS011;6708;49.814;8.652;2023-02-28T02:35:14;1.17;;;1.17;;
13279;SDS011;6708;49.814;8.652;2023-02-28T02:37:45;1.20;;;1.20;;
13279;SDS011;6708;49.814;8.652;2023-02-28T02:40:19;1.93;;;1.43;;
13279;SDS011;6708;49.814;8.652;2023-02-28T02:42:50;1.00;;;1.00;;
13279;SDS011;6708;49.814;8.652;2023-02-28T02:45:24;1.43;;;1.43;;
13279;SDS011;6708;49.814;8.652;2023-02-28T02:48:00;1.23;;;1.13;;
13279;SDS011;6708;49.814;8.652;2023-02-28T02:50:33;1.47;;;1.37;;
13279;SDS011;6708;49.814;8.652;2023-02-28T02:53:04;1.00;;;1.00;;
13279;SDS011;6708;49.814;8.652;2023-02-28T02:55:35;0.67;;;0.67;;
13279;SDS011;6708;49.814;8.652;2023-02-28T02:58:08;1.47;;;1.37;;
13279;SDS011;6708;49.814;8.652;2023-02-28T03:00:39;3.33;;;0.83;;
13279;SDS011;6708;49.814;8.652;2023-02-28T03:03:12;3.67;;;1.30;;
13279;SDS011;6708;49.814;8.652;2023-02-28T03:05:49;1.33;;;1.23;;
13279;SDS011;6708;49.814;8.652;2023-02-28T03:08:18;1.53;;;1.43;;
13279;SDS011;6708;49.814;8.652;2023-02-28T03:10:48;0.93;;;0.93;;
13279;SDS011;6708;49.814;8.652;2023-02-28T03:13:26;1.40;;;1.17;;
13279;SDS011;6708;49.814;8.652;2023-02-28T03:16:32;2.40;;;1.53;;
13279;SDS011;6708;49.814;8.652;2023-02-28T03:19:12;1.43;;;1.30;;
13279;SDS011;6708;49.814;8.652;2023-02-28T03:22:00;1.23;;;1.20;;
13279;SDS011;6708;49.814;8.652;2023-02-28T03:24:49;1.40;;;1.30;;
13279;SDS011;6708;49.814;8.652;2023-02-28T03:27:26;1.80;;;1.30;;
13279;SDS011;6708;49.814;8.652;2023-02-28T03:29:58;1.10;;;1.10;;
13279;SDS011;6708;49.814;8.652;2023-02-28T03:32:38;1.37;;;1.27;;
13279;SDS011;6708;49.814;8.652;2023-02-28T03:35:12;1.40;;;1.40;;
13279;SDS011;6708;49.814;8.652;2023-02-28T03:37:50;1.30;;;1.30;;
13279;SDS011;6708;49.814;8.652;2023-02-28T03:40:21;4.23;;;1.47;;
13279;SDS011;6708;49.814;8.652;2023-02-28T03:42:53;1.63;;;1.53;;
13279;SDS011;6708;49.814;8.652;2023-02-28T03:45:24;1.40;;;1.40;;
13279;SDS011;6708;49.814;8.652;2023-02-28T03:47:55;1.57;;;1.57;;
13279;SDS011;6708;49.814;8.652;2023-02-28T03:50:27;1.47;;;1.37;;
13279;SDS011;6708;49.814;8.652;2023-02-28T03:53:04;1.83;;;1.73;;
13279;SDS011;6708;49.814;8.652;2023-02-28T03:55:37;1.60;;;1.50;;
13279;SDS011;6708;49.814;8.652;2023-02-28T03:58:11;1.20;;;1.20;;
13279;SDS011;6708;49.814;8.652;2023-02-28T04:00:43;0.90;;;0.90;;
13279;SDS011;6708;49.814;8.652;2023-02-28T04:03:16;2.17;;;1.80;;
13279;SDS011;6708;49.814;8.652;2023-02-28T04:05:46;1.70;;;1.60;;
13279;SDS011;6708;49.814;8.652;2023-02-28T04:08:21;3.70;;;1.30;;
13279;SDS011;6708;49.814;8.652;2023-02-28T04:10:53;1.23;;;1.23;;
13279;SDS011;6708;49.814;8.652;2023-02-28T04:13:24;1.30;;;1.30;;
13279;SDS011;6708;49.814;8.652;2023-02-28T04:15:53;1.37;;;1.37;;
13279;SDS011;6708;49.814;8.652;2023-02-28T04:18:21;1.40;;;1.33;;
13279;SDS011;6708;49.814;8.652;2023-02-28T04:20:50;1.50;;;1.40;;
13279;SDS011;6708;49.814;8.652;2023-02-28T04:23:23;1.63;;;1.53;;
13279;SDS011;6708;49.814;8.652;2023-02-28T04:25:54;2.00;;;1.90;;
13279;SDS011;6708;49.814;8.652;2023-02-28T04:28:25;2.80;;;1.70;;
13279;SDS011;6708;49.814;8.652;2023-02-28T04:30:54;1.80;;;1.70;;
13279;SDS011;6708;49.814;8.652;2023-02-28T04:33:23;2.00;;;1.80;;
13279;SDS011;6708;49.814;8.652;2023-02-28T04:36:00;1.47;;;1.47;;
13279;SDS011;6708;49.814;8.652;2023-02-28T04:38:32;1.60;;;1.50;;
13279;SDS011;6708;49.814;8.652;2023-02-28T04:41:01;1.30;;;1.20;;
13279;SDS011;6708;49.814;8.652;2023-02-28T04:43:34;1.60;;;1.60;;
13279;SDS011;6708;49.814;8.652;2023-02-28T04:46:03;1.30;;;1.30;;
13279;SDS011;6708;49.814;8.652;2023-02-28T04:48:33;1.97;;;1.83;;
13279;SDS011;6708;49.814;8.652;2023-02-28T04:51:04;1.93;;;1.83;;
13279;SDS011;6708;49.814;8.652;2023-02-28T04:53:37;1.80;;;1.70;;
13279;SDS011;6708;49.814;8.652;2023-02-28T04:56:09;2.27;;;1.30;;
13279;SDS011;6708;49.814;8.652;2023-02-28T04:58:39;2.10;;;1.60;;
13279;SDS011;6708;49.814;8.652;2023-02-28T05:01:16;1.43;;;1.30;;
13279;SDS011;6708;49.814;8.652;2023-02-28T05:03:46;1.47;;;1.37;;
13279;SDS011;6708;49.814;8.652;2023-02-28T05:06:17;2.10;;;2.00;;
13279;SDS011;6708;49.814;8.652;2023-02-28T05:08:51;2.10;;;1.80;;
13279;SDS011;6708;49.814;8.652;2023-02-28T05:11:23;1.47;;;1.47;;
13279;SDS011;6708;49.814;8.652;2023-02-28T05:13:56;1.43;;;1.43;;
13279;SDS011;6708;49.814;8.652;2023-02-28T05:16:24;1.57;;;1.47;;
13279;SDS011;6708;49.814;8.652;2023-02-28T05:18:53;1.57;;;1.57;;
13279;SDS011;6708;49.814;8.652;2023-02-28T05:21:24;1.60;;;1.60;;
13279;SDS011;6708;49.814;8.652;2023-02-28T05:24:00;1.73;;;1.63;;
13279;SDS011;6708;49.814;8.652;2023-02-28T05:26:33;2.17;;;1.53;;
13279;SDS011;6708;49.814;8.652;2023-02-28T05:29:02;1.77;;;1.67;;
13279;SDS011;6708;49.814;8.652;2023-02-28T05:31:31;2.40;;;2.20;;
13279;SDS011;6708;49.814;8.652;2023-02-28T05:33:59;3.73;;;3.33;;
13279;SDS011;6708;49.814;8.652;2023-02-28T05:36:29;2.30;;;1.90;;
13279;SDS011;6708;49.814;8.652;2023-02-28T05:39:02;2.23;;;2.07;;
13279;SDS011;6708;49.814;8.652;2023-02-28T05:41:32;2.13;;;1.93;;
13279;SDS011;6708;49.814;8.652;2023-02-28T05:44:01;1.90;;;1.80;;
13279;SDS011;6708;49.814;8.652;2023-02-28T05:46:30;2.13;;;1.23;;
13279;SDS011;6708;49.814;8.652;2023-02-28T05:48:58;2.20;;;2.00;;
13279;SDS011;6708;49.814;8.652;2023-02-28T05:51:28;1.70;;;1.60;;
13279;SDS011;6708;49.814;8.652;2023-02-28T05:54:11;1.80;;;1.70;;
13279;SDS011;6708;49.814;8.652;2023-02-28T05:56:40;1.70;;;1.70;;
13279;SDS011;6708;49.814;8.652;2023-02-28T05:59:10;2.40;;;2.20;;
13279;SDS011;6708;49.814;8.652;2023-02-28T06:01:40;1.80;;;1.80;;
13279;SDS011;6708;49.814;8.652;2023-02-28T06:04:13;2.50;;;2.30;;
13279;SDS011;6708;49.814;8.652;2023-02-28T06:06:44;4.07;;;3.73;;
13279;SDS011;6708;49.814;8.652;2023-02-28T06:09:15;2.03;;;1.93;;
13279;SDS011;6708;49.814;8.652;2023-02-28T06:11:44;2.20;;;2.07;;
13279;SDS011;6708;49.814;8.652;2023-02-28T06:14:14;4.30;;;2.63;;
13279;SDS011;6708;49.814;8.652;2023-02-28T06:16:43;2.07;;;1.97;;
13279;SDS011;6708;49.814;8.652;2023-02-28T06:19:11;1.73;;;1.63;;
13279;SDS011;6708;49.814;8.652;2023-02-28T06:21:40;2.33;;;2.20;;
13279;SDS011;6708;49.814;8.652;2023-02-28T06:24:10;1.60;;;1.50;;
13279;SDS011;6708;49.814;8.652;2023-02-28T06:26:41;2.20;;;2.10;;
13279;SDS011;6708;49.814;8.652;2023-02-28T06:29:10;1.80;;;1.70;;
13279;SDS011;6708;49.814;8.652;2023-02-28T06:31:42;2.23;;;2.00;;
13279;SDS011;6708;49.814;8.652;2023-02-28T06:34:10;2.40;;;2.30;;
13279;SDS011;6708;49.814;8.652;2023-02-28T06:36:40;2.17;;;2.07;;
13279;SDS011;6708;49.814;8.652;2023-02-28T06:39:09;2.27;;;2.17;;
13279;SDS011;6708;49.814;8.652;2023-02-28T06:41:38;2.23;;;2.13;;
13279;SDS011;6708;49.814;8.652;2023-02-28T06:44:11;2.27;;;2.07;;
13279;SDS011;6708;49.814;8.652;2023-02-28T06:46:40;2.23;;;2.13;;
13279;SDS011;6708;49.814;8.652;2023-02-28T06:49:14;1.70;;;1.60;;
13279;SDS011;6708;49.814;8.652;2023-02-28T06:51:43;1.77;;;1.67;;
13279;SDS011;6708;49.814;8.652;2023-02-28T06:54:12;1.50;;;1.40;;
13279;SDS011;6708;49.814;8.652;2023-02-28T06:56:44;2.10;;;2.00;;
13279;SDS011;6708;49.814;8.652;2023-02-28T06:59:12;2.00;;;1.80;;
13279;SDS011;6708;49.814;8.652;2023-02-28T07:01:41;1.63;;;1.63;;
13279;SDS011;6708;49.814;8.652;2023-02-28T07:04:10;2.33;;;2.23;;
13279;SDS011;6708;49.814;8.652;2023-02-28T07:06:38;3.43;;;2.13;;
13279;SDS011;6708;49.814;8.652;2023-02-28T07:09:09;2.63;;;2.43;;
13279;SDS011;6708;49.814;8.652;2023-02-28T07:11:39;2.43;;;2.23;;
13279;SDS011;6708;49.814;8.652;2023-02-28T07:14:11;2.47;;;2.27;;
13279;SDS011;6708;49.814;8.652;2023-02-28T07:16:42;2.10;;;2.00;;
13279;SDS011;6708;49.814;8.652;2023-02-28T07:19:12;1.70;;;1.60;;
13279;SDS011;6708;49.814;8.652;2023-02-28T07:21:41;2.70;;;2.27;;
13279;SDS011;6708;49.814;8.652;2023-02-28T07:24:11;1.93;;;1.83;;
13279;SDS011;6708;49.814;8.652;2023-02-28T07:26:41;2.17;;;2.07;;
13279;SDS011;6708;49.814;8.652;2023-02-28T07:29:12;2.27;;;2.07;;
13279;SDS011;6708;49.814;8.652;2023-02-28T07:31:40;4.00;;;2.30;;
13279;SDS011;6708;49.814;8.652;2023-02-28T07:34:09;1.83;;;1.80;;
13279;SDS011;6708;49.814;8.652;2023-02-28T07:36:38;2.00;;;1.83;;
13279;SDS011;6708;49.814;8.652;2023-02-28T07:39:07;2.07;;;1.97;;
13279;SDS011;6708;49.814;8.652;2023-02-28T07:41:38;1.70;;;1.60;;
13279;SDS011;6708;49.814;8.652;2023-02-28T07:44:08;1.70;;;1.60;;
13279;SDS011;6708;49.814;8.652;2023-02-28T07:46:42;2.90;;;2.20;;
13279;SDS011;6708;49.814;8.652;2023-02-28T07:49:10;1.73;;;1.67;;
13279;SDS011;6708;49.814;8.652;2023-02-28T07:51:39;2.43;;;2.23;;
13279;SDS011;6708;49.814;8.652;2023-02-28T07:54:15;1.30;;;1.30;;
13279;SDS011;6708;49.814;8.652;2023-02-28T07:56:49;2.83;;;1.77;;
13279;SDS011;6708;49.814;8.652;2023-02-28T07:59:21;1.23;;;1.23;;
13279;SDS011;6708;49.814;8.652;2023-02-28T08:01:52;1.30;;;1.30;;
13279;SDS011;6708;49.814;8.652;2023-02-28T08:04:20;2.00;;;1.90;;
13279;SDS011;6708;49.814;8.652;2023-02-28T08:06:50;1.77;;;1.63;;
13279;SDS011;6708;49.814;8.652;2023-02-28T08:09:19;1.90;;;1.80;;
13279;SDS011;6708;49.814;8.652;2023-02-28T08:11:48;2.37;;;2.17;;
13279;SDS011;6708;49.814;8.652;2023-02-28T08:14:16;2.40;;;2.07;;
13279;SDS011;6708;49.814;8.652;2023-02-28T08:16:47;2.43;;;1.90;;
13279;SDS011;6708;49.814;8.652;2023-02-28T08:19:16;2.17;;;1.97;;
13279;SDS011;6708;49.814;8.652;2023-02-28T08:21:44;2.07;;;1.97;;
13279;SDS011;6708;49.814;8.652;2023-02-28T08:24:16;3.20;;;2.10;;
13279;SDS011;6708;49.814;8.652;2023-02-28T08:26:45;2.53;;;2.23;;
13279;SDS011;6708;49.814;8.652;2023-02-28T08:29:13;1.90;;;1.87;;
13279;SDS011;6708;49.814;8.652;2023-02-28T08:31:42;4.53;;;2.03;;
13279;SDS011;6708;49.814;8.652;2023-02-28T08:34:14;2.00;;;1.90;;
13279;SDS011;6708;49.814;8.652;2023-02-28T08:36:43;1.90;;;1.80;;
13279;SDS011;6708;49.814;8.652;2023-02-28T08:39:12;3.10;;;2.10;;
13279;SDS011;6708;49.814;8.652;2023-02-28T08:41:41;2.30;;;2.20;;
13279;SDS011;6708;49.814;8.652;2023-02-28T08:44:10;2.40;;;2.20;;
13279;SDS011;6708;49.814;8.652;2023-02-28T08:46:39;3.30;;;2.20;;
13279;SDS011;6708;49.814;8.652;2023-02-28T08:49:09;2.43;;;2.23;;
13279;SDS011;6708;49.814;8.652;2023-02-28T08:51:41;2.83;;;2.63;;
13279;SDS011;6708;49.814;8.652;2023-02-28T08:54:09;2.20;;;2.00;;
13279;SDS011;6708;49.814;8.652;2023-02-28T08:56:41;2.87;;;2.40;;
13279;SDS011;6708;49.814;8.652;2023-02-28T08:59:11;5.10;;;2.60;;
13279;SDS011;6708;49.814;8.652;2023-02-28T09:01:40;2.83;;;2.63;;
13279;SDS011;6708;49.814;8.652;2023-02-28T09:04:10;3.37;;;2.80;;
13279;SDS011;6708;49.814;8.652;2023-02-28T09:06:41;2.57;;;2.47;;
13279;SDS011;6708;49.814;8.652;2023-02-28T09:09:10;2.50;;;2.40;;
13279;SDS011;6708;49.814;8.652;2023-02-28T09:11:38;3.03;;;2.83;;
13279;SDS011;6708;49.814;8.652;2023-02-28T09:14:07;3.50;;;3.00;;
13279;SDS011;6708;49.814;8.652;2023-02-28T09:16:36;3.33;;;3.03;;
13279;SDS011;6708;49.814;8.652;2023-02-28T09:19:05;3.37;;;3.07;;
13279;SDS011;6708;49.814;8.652;2023-02-28T09:21:33;3.20;;;3.00;;
13279;SDS011;6708;49.814;8.652;2023-02-28T09:24:05;3.13;;;2.93;;
13279;SDS011;6708;49.814;8.652;2023-02-28T09:26:34;3.70;;;2.87;;
13279;SDS011;6708;49.814;8.652;2023-02-28T09:29:02;2.97;;;2.77;;
13279;SDS011;6708;49.814;8.652;2023-02-28T09:31:31;4.30;;;3.60;;
13279;SDS011;6708;49.814;8.652;2023-02-28T09:34:00;3.67;;;3.43;;
13279;SDS011;6708;49.814;8.652;2023-02-28T09:36:31;6.30;;;3.40;;
13279;SDS011;6708;49.814;8.652;2023-02-28T09:39:00;4.87;;;3.70;;
13279;SDS011;6708;49.814;8.652;2023-02-28T09:41:36;3.73;;;3.43;;
13279;SDS011;6708;49.814;8.652;2023-02-28T09:44:16;3.60;;;3.40;;
13279;SDS011;6708;49.814;8.652;2023-02-28T09:46:53;3.23;;;3.03;;
13279;SDS011;6708;49.814;8.652;2023-02-28T09:49:25;3.40;;;3.10;;
13279;SDS011;6708;49.814;8.652;2023-02-28T09:52:00;3.40;;;3.10;;
13279;SDS011;6708;49.814;8.652;2023-02-28T09:54:34;3.53;;;3.33;;
13279;SDS011;6708;49.814;8.652;2023-02-28T09:57:10;3.90;;;3.60;;
13279;SDS011;6708;49.814;8.652;2023-02-28T09:59:48;3.60;;;3.30;;
13279;SDS011;6708;49.814;8.652;2023-02-28T10:02:29;5.00;;;4.33;;
13279;SDS011;6708;49.814;8.652;2023-02-28T10:05:09;3.50;;;3.20;;
13279;SDS011;6708;49.814;8.652;2023-02-28T10:07:45;3.90;;;3.60;;
13279;SDS011;6708;49.814;8.652;2023-02-28T10:10:21;3.60;;;3.30;;
13279;SDS011;6708;49.814;8.652;2023-02-28T10:12:59;4.60;;;3.70;;
13279;SDS011;6708;49.814;8.652;2023-02-28T10:15:33;3.50;;;3.30;;
13279;SDS011;6708;49.814;8.652;2023-02-28T10:18:05;3.57;;;3.27;;
13279;SDS011;6708;49.814;8.652;2023-02-28T10:20:38;3.63;;;3.43;;
13279;SDS011;6708;49.814;8.652;2023-02-28T10:23:09;3.67;;;3.40;;
13279;SDS011;6708;49.814;8.652;2023-02-28T10:25:40;3.30;;;3.07;;
13279;SDS011;6708;49.814;8.652;2023-02-28T10:28:16;3.40;;;3.20;;
13279;SDS011;6708;49.814;8.652;2023-02-28T10:30:48;4.43;;;3.50;;
13279;SDS011;6708;49.814;8.652;2023-02-28T10:33:19;4.17;;;3.80;;
13279;SDS011;6708;49.814;8.652;2023-02-28T10:35:52;3.70;;;3.40;;
13279;SDS011;6708;49.814;8.652;2023-02-28T10:38:22;5.40;;;3.80;;
13279;SDS011;6708;49.814;8.652;2023-02-28T10:41:01;3.57;;;3.33;;
13279;SDS011;6708;49.814;8.652;2023-02-28T10:43:36;3.50;;;3.27;;
13279;SDS011;6708;49.814;8.652;2023-02-28T10:46:10;3.77;;;3.43;;
13279;SDS011;6708;49.814;8.652;2023-02-28T10:48:58;4.97;;;3.57;;
13279;SDS011;6708;49.814;8.652;2023-02-28T10:51:34;3.67;;;3.47;;
13279;SDS011;6708;49.814;8.652;2023-02-28T10:54:05;3.40;;;3.20;;
13279;SDS011;6708;49.814;8.652;2023-02-28T10:56:37;3.50;;;3.23;;
13279;SDS011;6708;49.814;8.652;2023-02-28T11:01:57;4.10;;;3.80;;
13279;SDS011;6708;49.814;8.652;2023-02-28T11:04:34;3.80;;;3.53;;
13279;SDS011;6708;49.814;8.652;2023-02-28T11:07:05;3.60;;;3.40;;
13279;SDS011;6708;49.814;8.652;2023-02-28T11:09:41;4.00;;;3.43;;
13279;SDS011;6708;49.814;8.652;2023-02-28T11:12:19;4.40;;;3.80;;
13279;SDS011;6708;49.814;8.652;2023-02-28T11:14:53;5.10;;;3.10;;
13279;SDS011;6708;49.814;8.652;2023-02-28T11:17:24;3.93;;;3.53;;
13279;SDS011;6708;49.814;8.652;2023-02-28T11:19:54;3.47;;;3.17;;
13279;SDS011;6708;49.814;8.652;2023-02-28T11:22:24;4.00;;;3.60;;
13279;SDS011;6708;49.814;8.652;2023-02-28T11:24:57;4.13;;;3.73;;
13279;SDS011;6708;49.814;8.652;2023-02-28T11:30:27;5.33;;;3.63;;
13279;SDS011;6708;49.814;8.652;2023-02-28T11:33:00;3.53;;;3.33;;
13279;SDS011;6708;49.814;8.652;2023-02-28T11:35:31;3.87;;;3.30;;
13279;SDS011;6708;49.814;8.652;2023-02-28T11:38:04;3.60;;;3.30;;
13279;SDS011;6708;49.814;8.652;2023-02-28T11:40:36;3.90;;;3.60;;
13279;SDS011;6708;49.814;8.652;2023-02-28T11:43:12;4.00;;;3.70;;
13279;SDS011;6708;49.814;8.652;2023-02-28T11:45:54;4.07;;;3.70;;
13279;SDS011;6708;49.814;8.652;2023-02-28T11:48:32;4.20;;;3.80;;
13279;SDS011;6708;49.814;8.652;2023-02-28T11:51:08;8.47;;;3.70;;
13279;SDS011;6708;49.814;8.652;2023-02-28T11:53:50;3.97;;;3.60;;
13279;SDS011;6708;49.814;8.652;2023-02-28T11:56:43;4.57;;;4.17;;
13279;SDS011;6708;49.814;8.652;2023-02-28T12:02:13;4.17;;;3.87;;
13279;SDS011;6708;49.814;8.652;2023-02-28T12:04:59;4.47;;;4.07;;
13279;SDS011;6708;49.814;8.652;2023-02-28T12:07:39;4.60;;;4.30;;
13279;SDS011;6708;49.814;8.652;2023-02-28T12:10:20;3.97;;;3.70;;
13279;SDS011;6708;49.814;8.652;2023-02-28T12:12:53;3.97;;;3.67;;
13279;SDS011;6708;49.814;8.652;2023-02-28T12:15:38;3.97;;;3.67;;
13279;SDS011;6708;49.814;8.652;2023-02-28T12:18:23;4.37;;;3.97;;
13279;SDS011;6708;49.814;8.652;2023-02-28T12:20:59;4.50;;;4.10;;
13279;SDS011;6708;49.814;8.652;2023-02-28T12:26:20;4.67;;;4.20;;
13279;SDS011;6708;49.814;8.652;2023-02-28T12:28:53;4.13;;;3.90;;
13279;SDS011;6708;49.814;8.652;2023-02-28T12:31:23;7.77;;;4.50;;
13279;SDS011;6708;49.814;8.652;2023-02-28T12:33:59;4.70;;;4.30;;
13279;SDS011;6708;49.814;8.652;2023-02-28T12:36:31;7.13;;;4.57;;
13279;SDS011;6708;49.814;8.652;2023-02-28T12:39:03;4.13;;;3.83;;
13279;SDS011;6708;49.814;8.652;2023-02-28T12:41:40;5.17;;;4.07;;
13279;SDS011;6708;49.814;8.652;2023-02-28T12:44:11;7.63;;;4.60;;
13279;SDS011;6708;49.814;8.652;2023-02-28T12:46:42;4.57;;;4.27;;
13279;SDS011;6708;49.814;8.652;2023-02-28T12:49:17;6.33;;;4.63;;
13279;SDS011;6708;49.814;8.652;2023-02-28T12:51:47;3.97;;;3.63;;
13279;SDS011;6708;49.814;8.652;2023-02-28T12:54:19;5.17;;;3.90;;
13279;SDS011;6708;49.814;8.652;2023-02-28T12:56:53;4.30;;;4.00;;
13279;SDS011;6708;49.814;8.652;2023-02-28T12:59:27;8.50;;;4.43;;
13279;SDS011;6708;49.814;8.652;2023-02-28T13:05:19;5.93;;;3.80;;
13279;SDS011;6708;49.814;8.652;2023-02-28T13:10:56;5.40;;;4.07;;
13279;SDS011;6708;49.814;8.652;2023-02-28T13:13:25;4.70;;;4.40;;
13279;SDS011;6708;49.814;8.652;2023-02-28T13:16:00;3.73;;;3.53;;
13279;SDS011;6708;49.814;8.652;2023-02-28T13:18:31;4.00;;;3.77;;
13279;SDS011;6708;49.814;8.652;2023-02-28T13:21:05;4.83;;;4.40;;
13279;SDS011;6708;49.814;8.652;2023-02-28T13:23:57;4.17;;;3.77;;
13279;SDS011;6708;49.814;8.652;2023-02-28T13:29:30;4.97;;;3.80;;
13279;SDS011;6708;49.814;8.652;2023-02-28T13:40:49;6.67;;;4.17;;
13279;SDS011;6708;49.814;8.652;2023-02-28T13:43:20;4.30;;;4.00;;
13279;SDS011;6708;49.814;8.652;2023-02-28T13:48:47;5.13;;;4.23;;
13279;SDS011;6708;49.814;8.652;2023-02-28T13:54:23;4.87;;;4.30;;
13279;SDS011;6708;49.814;8.652;2023-02-28T13:56:59;5.03;;;4.60;;
13279;SDS011;6708;49.814;8.652;2023-02-28T13:59:35;6.73;;;4.60;;
13279;SDS011;6708;49.814;8.652;2023-02-28T14:02:23;6.43;;;4.53;;
13279;SDS011;6708;49.814;8.652;2023-02-28T14:05:05;4.67;;;4.33;;
13279;SDS011;6708;49.814;8.652;2023-02-28T14:07:39;4.77;;;4.33;;
13279;SDS011;6708;49.814;8.652;2023-02-28T14:10:27;5.33;;;4.90;;
13279;SDS011;6708;49.814;8.652;2023-02-28T14:12:59;4.17;;;3.87;;
13279;SDS011;6708;49.814;8.652;2023-02-28T14:15:43;4.43;;;4.10;;
13279;SDS011;6708;49.814;8.652;2023-02-28T14:18:27;4.53;;;4.10;;
13279;SDS011;6708;49.814;8.652;2023-02-28T14:20:58;4.60;;;4.10;;
13279;SDS011;6708;49.814;8.652;2023-02-28T14:26:43;5.80;;;4.13;;
13279;SDS011;6708;49.814;8.652;2023-02-28T14:29:24;5.20;;;4.30;;
13279;SDS011;6708;49.814;8.652;2023-02-28T14:32:02;5.03;;;4.53;;
13279;SDS011;6708;49.814;8.652;2023-02-28T14:34:35;4.23;;;3.90;;
13279;SDS011;6708;49.814;8.652;2023-02-28T14:37:09;4.50;;;4.20;;
13279;SDS011;6708;49.814;8.652;2023-02-28T14:39:42;4.90;;;4.60;;
13279;SDS011;6708;49.814;8.652;2023-02-28T14:42:33;6.03;;;4.60;;
13279;SDS011;6708;49.814;8.652;2023-02-28T14:45:03;4.87;;;4.53;;
13279;SDS011;6708;49.814;8.652;2023-02-28T14:47:33;4.23;;;3.67;;
13279;SDS011;6708;49.814;8.652;2023-02-28T14:50:03;5.57;;;3.90;;
13279;SDS011;6708;49.814;8.652;2023-02-28T14:52:34;4.03;;;3.73;;
13279;SDS011;6708;49.814;8.652;2023-02-28T14:55:05;4.20;;;3.90;;
13279;SDS011;6708;49.814;8.652;2023-02-28T14:57:50;4.57;;;3.97;;
13279;SDS011;6708;49.814;8.652;2023-02-28T15:00:21;4.17;;;3.80;;
13279;SDS011;6708;49.814;8.652;2023-02-28T15:02:52;4.07;;;3.77;;
13279;SDS011;6708;49.814;8.652;2023-02-28T15:05:28;6.43;;;4.37;;
13279;SDS011;6708;49.814;8.652;2023-02-28T15:08:10;4.70;;;4.30;;
13279;SDS011;6708;49.814;8.652;2023-02-28T15:10:40;6.30;;;4.93;;
13279;SDS011;6708;49.814;8.652;2023-02-28T15:13:15;4.17;;;3.90;;
13279;SDS011;6708;49.814;8.652;2023-02-28T15:15:47;7.17;;;4.80;;
13279;SDS011;6708;49.814;8.652;2023-02-28T15:18:26;5.13;;;4.60;;
13279;SDS011;6708;49.814;8.652;2023-02-28T15:21:04;4.33;;;4.03;;
13279;SDS011;6708;49.814;8.652;2023-02-28T15:23:35;4.30;;;3.80;;
13279;SDS011;6708;49.814;8.652;2023-02-28T15:26:04;5.27;;;4.77;;
13279;SDS011;6708;49.814;8.652;2023-02-28T15:28:36;9.60;;;4.90;;
13279;SDS011;6708;49.814;8.652;2023-02-28T15:31:16;4.57;;;4.17;;
13279;SDS011;6708;49.814;8.652;2023-02-28T15:33:54;5.53;;;4.27;;
13279;SDS011;6708;49.814;8.652;2023-02-28T15:36:24;5.13;;;4.20;;
13279;SDS011;6708;49.814;8.652;2023-02-28T15:38:57;4.23;;;3.87;;
13279;SDS011;6708;49.814;8.652;2023-02-28T15:41:26;4.43;;;4.13;;
13279;SDS011;6708;49.814;8.652;2023-02-28T15:46:57;4.37;;;4.07;;
13279;SDS011;6708;49.814;8.652;2023-02-28T15:49:27;4.23;;;3.83;;
13279;SDS011;6708;49.814;8.652;2023-02-28T15:51:58;4.33;;;4.03;;
13279;SDS011;6708;49.814;8.652;2023-02-28T15:54:28;4.17;;;3.77;;
13279;SDS011;6708;49.814;8.652;2023-02-28T15:57:02;5.00;;;4.47;;
13279;SDS011;6708;49.814;8.652;2023-02-28T15:59:36;4.07;;;3.77;;
13279;SDS011;6708;49.814;8.652;2023-02-28T16:02:15;4.80;;;4.20;;
13279;SDS011;6708;49.814;8.652;2023-02-28T16:07:46;4.67;;;4.27;;
13279;SDS011;6708;49.814;8.652;2023-02-28T16:10:18;4.90;;;4.23;;
13279;SDS011;6708;49.814;8.652;2023-02-28T16:12:49;4.10;;;3.77;;
13279;SDS011;6708;49.814;8.652;2023-02-28T16:15:21;3.93;;;3.63;;
13279;SDS011;6708;49.814;8.652;2023-02-28T16:17:54;4.17;;;3.87;;
13279;SDS011;6708;49.814;8.652;2023-02-28T16:20:27;3.80;;;3.53;;
13279;SDS011;6708;49.814;8.652;2023-02-28T16:22:57;4.30;;;4.00;;
13279;SDS011;6708;49.814;8.652;2023-02-28T16:25:33;4.30;;;4.00;;
13279;SDS011;6708;49.814;8.652;2023-02-28T16:28:03;3.53;;;3.27;;